createdAt,value
2022-08-17T00:01:52.805Z,16.70
2022-08-17T00:04:24.500Z,17.20
2022-08-17T00:06:54.360Z,21.00
2022-08-17T00:09:24.271Z,17.50
2022-08-17T00:12:40.832Z,19.50
2022-08-17T00:14:45.050Z,19.30
2022-08-17T00:17:14.653Z,21.20
2022-08-17T00:19:44.398Z,19.00
2022-08-17T00:22:31.531Z,21.20
2022-08-17T00:25:06.701Z,17.20
2022-08-17T00:27:37.139Z,16.10
2022-08-17T00:30:11.053Z,15.50
2022-08-17T00:33:15.525Z,18.80
2022-08-17T00:35:31.944Z,17.60
2022-08-17T00:38:03.853Z,20.60
2022-08-17T00:40:44.312Z,22.10
2022-08-17T00:43:19.759Z,17.10
2022-08-17T00:45:49.963Z,13.90
2022-08-17T00:48:30.007Z,15.60
2022-08-17T00:51:07.042Z,15.80
2022-08-17T00:53:41.602Z,21.20
2022-08-17T00:56:15.783Z,15.80
2022-08-17T00:58:46.093Z,16.00
2022-08-17T01:01:21.747Z,17.20
2022-08-17T01:03:55.633Z,16.30
2022-08-17T01:06:29.890Z,18.40
2022-08-17T01:09:01.427Z,22.50
2022-08-17T01:11:35.019Z,20.50
2022-08-17T01:14:05.139Z,15.60
2022-08-17T01:16:34.982Z,17.40
2022-08-17T01:19:11.185Z,23.10
2022-08-17T01:21:47.547Z,18.10
2022-08-17T01:24:17.310Z,14.60
2022-08-17T01:26:47.663Z,15.80
2022-08-17T01:29:20.912Z,14.50
2022-08-17T01:31:54.233Z,17.40
2022-08-17T01:37:05.070Z,14.50
2022-08-17T01:39:39.161Z,15.00
2022-08-17T01:42:16.123Z,13.80
2022-08-17T01:44:46.491Z,17.90
2022-08-17T01:47:16.163Z,19.30
2022-08-17T01:49:47.840Z,20.00
2022-08-17T01:52:18.401Z,20.70
2022-08-17T01:54:49.984Z,20.00
2022-08-17T01:57:19.698Z,17.40
2022-08-17T01:59:50.602Z,16.50
2022-08-17T02:02:30.975Z,22.60
2022-08-17T02:05:01.170Z,17.00
2022-08-17T02:07:31.072Z,18.90
2022-08-17T02:10:00.761Z,17.60
2022-08-17T02:12:39.340Z,15.90
2022-08-17T02:15:12.092Z,15.90
2022-08-17T02:17:42.099Z,15.50
2022-08-17T02:20:12.412Z,19.80
2022-08-17T02:22:46.511Z,16.60
2022-08-17T02:25:19.044Z,16.80
2022-08-17T02:27:52.092Z,15.30
2022-08-17T02:30:59.443Z,15.90
2022-08-17T02:33:12.617Z,16.40
2022-08-17T02:35:42.782Z,16.30
2022-08-17T02:38:12.663Z,13.40
2022-08-17T02:40:42.390Z,19.20
2022-08-17T02:43:15.182Z,13.70
2022-08-17T02:45:45.531Z,14.60
2022-08-17T02:48:15.692Z,14.60
2022-08-17T02:51:01.201Z,14.90
2022-08-17T02:53:35.926Z,15.60
2022-08-17T02:56:06.641Z,17.70
2022-08-17T02:58:36.494Z,16.90
2022-08-17T03:01:08.353Z,19.70
2022-08-17T03:03:39.874Z,18.70
2022-08-17T03:06:10.721Z,15.40
2022-08-17T03:08:40.464Z,15.50
2022-08-17T03:11:10.403Z,12.90
2022-08-17T03:13:40.274Z,14.80
2022-08-17T03:16:10.201Z,17.30
2022-08-17T03:18:39.851Z,15.20
2022-08-17T03:21:09.631Z,21.00
2022-08-17T03:23:40.813Z,17.60
2022-08-17T03:26:12.377Z,16.20
2022-08-17T03:28:45.376Z,19.20
2022-08-17T03:31:15.142Z,16.20
2022-08-17T03:33:44.909Z,18.90
2022-08-17T03:36:14.788Z,17.70
2022-08-17T03:38:44.301Z,18.80
2022-08-17T03:41:14.798Z,15.60
2022-08-17T03:43:44.472Z,16.80
2022-08-17T03:46:34.215Z,16.40
2022-08-17T03:49:25.173Z,15.60
2022-08-17T03:52:13.570Z,16.60
2022-08-17T03:55:02.638Z,16.00
2022-08-17T03:57:33.202Z,16.20
2022-08-17T04:00:04.710Z,24.70
2022-08-17T04:02:43.692Z,19.20
2022-08-17T04:05:14.623Z,16.70
2022-08-17T04:07:44.538Z,20.80
2022-08-17T04:10:14.422Z,17.20
2022-08-17T04:12:49.759Z,19.10
2022-08-17T04:15:19.942Z,15.80
2022-08-17T04:17:50.029Z,18.70
2022-08-17T04:20:23.111Z,20.00
2022-08-17T04:23:02.343Z,16.50
2022-08-17T04:25:34.431Z,16.60
2022-08-17T04:28:05.801Z,17.70
2022-08-17T04:30:46.363Z,17.30
2022-08-17T04:33:18.503Z,19.00
2022-08-17T04:35:50.535Z,20.70
2022-08-17T04:38:22.440Z,20.60
2022-08-17T04:41:18.969Z,20.60
2022-08-17T04:43:50.322Z,24.90
2022-08-17T04:46:22.500Z,21.40
2022-08-17T04:48:54.622Z,18.10
2022-08-17T04:51:27.702Z,19.50
2022-08-17T04:54:00.083Z,19.70
2022-08-17T04:56:31.461Z,19.70
2022-08-17T04:59:05.449Z,19.80
2022-08-17T05:01:39.958Z,22.90
2022-08-17T05:04:33.474Z,20.30
2022-08-17T05:07:04.687Z,21.30
2022-08-17T05:09:34.383Z,22.70
2022-08-17T05:12:05.667Z,21.50
2022-08-17T05:14:35.393Z,23.00
2022-08-17T05:17:07.051Z,22.10
2022-08-17T05:19:38.013Z,19.90
2022-08-17T05:22:10.191Z,20.00
2022-08-17T05:24:43.604Z,18.60
2022-08-17T05:27:23.646Z,17.90
2022-08-17T05:29:53.721Z,17.50
2022-08-17T05:32:39.625Z,18.40
2022-08-17T05:35:10.942Z,19.30
2022-08-17T05:37:40.733Z,20.40
2022-08-17T05:40:12.149Z,23.80
2022-08-17T05:42:42.440Z,18.80
2022-08-17T05:45:16.163Z,17.50
2022-08-17T05:47:58.398Z,17.10
2022-08-17T05:50:43.151Z,13.60
2022-08-17T05:53:36.441Z,18.90
2022-08-17T05:56:48.247Z,18.00
2022-08-17T05:59:32.317Z,20.30
2022-08-17T06:02:27.543Z,15.80
2022-08-17T06:05:22.025Z,16.60
2022-08-17T06:08:05.593Z,17.70
2022-08-17T06:10:48.984Z,22.00
2022-08-17T06:13:57.258Z,14.50
2022-08-17T06:16:36.511Z,14.50
2022-08-17T06:19:12.009Z,15.50
2022-08-17T06:21:45.143Z,19.20
2022-08-17T06:24:28.355Z,15.40
2022-08-17T06:29:41.752Z,16.00
2022-08-17T06:32:14.215Z,21.20
2022-08-17T06:34:45.876Z,17.00
2022-08-17T06:37:32.034Z,18.40
2022-08-17T06:40:20.141Z,17.80
2022-08-17T06:43:06.657Z,20.50
2022-08-17T06:45:42.221Z,19.70
2022-08-17T06:48:23.913Z,19.10
2022-08-17T06:50:59.673Z,20.50
2022-08-17T06:53:35.551Z,20.30
2022-08-17T06:56:08.754Z,20.60
2022-08-17T06:58:42.902Z,25.90
2022-08-17T07:01:17.717Z,17.40
2022-08-17T07:03:54.336Z,20.50
2022-08-17T07:06:27.023Z,18.20
2022-08-17T07:09:01.471Z,20.50
2022-08-17T07:11:38.182Z,19.60
2022-08-17T07:14:19.190Z,21.90
2022-08-17T07:16:54.213Z,16.90
2022-08-17T07:19:28.143Z,18.70
2022-08-17T07:22:08.450Z,17.70
2022-08-17T07:24:47.024Z,18.80
2022-08-17T07:27:21.254Z,21.20
2022-08-17T07:29:56.223Z,19.70
2022-08-17T07:32:31.621Z,19.90
2022-08-17T07:35:08.192Z,22.50
2022-08-17T07:37:42.298Z,18.90
2022-08-17T07:40:20.177Z,17.10
2022-08-17T07:43:21.640Z,17.20
2022-08-17T07:46:18.209Z,16.10
2022-08-17T07:48:50.974Z,18.00
2022-08-17T07:53:52.445Z,18.10
2022-08-17T07:56:43.913Z,19.90
2022-08-17T07:59:17.773Z,18.20
2022-08-17T08:02:01.983Z,20.40
2022-08-17T08:04:59.262Z,21.40
2022-08-17T08:07:29.301Z,15.90
2022-08-17T08:10:08.083Z,17.10
2022-08-17T08:12:40.121Z,15.90
2022-08-17T08:15:18.415Z,15.10
2022-08-17T08:17:51.916Z,13.90
2022-08-17T08:20:51.907Z,17.30
2022-08-17T08:23:37.765Z,15.40
2022-08-17T08:26:25.982Z,16.10
2022-08-17T08:29:14.472Z,17.70
2022-08-17T08:31:58.999Z,18.30
2022-08-17T08:35:00.735Z,16.00
2022-08-17T08:37:42.696Z,18.70
2022-08-17T08:40:29.491Z,14.70
2022-08-17T08:43:12.234Z,15.90
2022-08-17T08:45:49.181Z,14.60
2022-08-17T08:48:56.589Z,14.90
2022-08-17T08:51:38.044Z,13.80
2022-08-17T08:54:26.661Z,13.90
2022-08-17T09:00:14.983Z,13.40
2022-08-17T09:03:20.862Z,17.10
2022-08-17T09:06:32.187Z,11.40
2022-08-17T09:09:15.978Z,10.90
2022-08-17T09:12:02.320Z,16.40
2022-08-17T09:14:47.133Z,12.60
2022-08-17T09:17:21.275Z,11.90
2022-08-17T09:19:56.393Z,12.50
2022-08-17T09:22:34.383Z,11.40
2022-08-17T09:25:10.823Z,11.20
2022-08-17T09:27:53.260Z,13.40
2022-08-17T09:30:24.884Z,15.40
2022-08-17T09:33:00.193Z,12.30
2022-08-17T09:35:37.538Z,10.30
2022-08-17T09:38:21.368Z,10.60
2022-08-17T09:40:57.842Z,10.80
2022-08-17T09:43:38.091Z,10.80
2022-08-17T09:46:14.081Z,9.80
2022-08-17T09:48:50.676Z,9.30
2022-08-17T09:51:26.863Z,10.40
2022-08-17T09:54:09.479Z,13.10
2022-08-17T09:57:28.097Z,10.80
2022-08-17T10:00:07.323Z,11.10
2022-08-17T10:03:01.600Z,11.60
2022-08-17T10:05:37.702Z,10.40
2022-08-17T10:08:16.017Z,13.70
2022-08-17T10:10:58.443Z,14.00
2022-08-17T10:13:38.402Z,13.20
2022-08-17T10:16:22.321Z,11.20
2022-08-17T10:19:03.505Z,11.10
2022-08-17T10:22:01.252Z,16.20
2022-08-17T10:25:13.527Z,13.10
2022-08-17T10:27:57.963Z,12.80
2022-08-17T10:30:32.152Z,12.00
2022-08-17T10:33:06.484Z,13.40
2022-08-17T10:35:49.119Z,12.40
2022-08-17T10:41:01.889Z,12.90
2022-08-17T10:43:41.351Z,13.30
2022-08-17T10:46:30.831Z,12.90
2022-08-17T10:49:24.959Z,11.20
2022-08-17T10:51:56.862Z,10.20
2022-08-17T10:54:46.812Z,9.90
2022-08-17T10:57:38.570Z,13.30
2022-08-17T11:00:15.891Z,13.30
2022-08-17T11:02:51.558Z,13.70
2022-08-17T11:05:43.417Z,13.10
2022-08-17T11:08:46.203Z,10.80
2022-08-17T11:11:40.542Z,9.80
2022-08-17T11:14:27.462Z,9.90
2022-08-17T11:17:15.454Z,19.00
2022-08-17T11:20:16.006Z,10.60
2022-08-17T11:23:17.996Z,12.40
2022-08-17T11:25:52.933Z,11.40
2022-08-17T11:28:27.682Z,9.90
2022-08-17T11:31:03.450Z,10.60
2022-08-17T11:34:03.060Z,12.30
2022-08-17T11:37:12.911Z,9.70
2022-08-17T11:40:25.741Z,9.60
2022-08-17T11:43:25.367Z,10.50
2022-08-17T11:46:13.091Z,12.50
2022-08-17T11:49:07.796Z,10.90
2022-08-17T11:52:12.163Z,9.80
2022-08-17T11:54:46.141Z,10.20
2022-08-17T11:58:01.190Z,12.00
2022-08-17T12:00:58.143Z,11.20
2022-08-17T12:03:55.501Z,9.00
2022-08-17T12:06:50.900Z,8.60
2022-08-17T12:09:24.818Z,12.20
2022-08-17T12:12:12.538Z,11.40
2022-08-17T12:17:52.014Z,10.90
2022-08-17T12:20:27.500Z,9.20
2022-08-17T12:23:04.481Z,13.50
2022-08-17T12:25:39.301Z,9.20
2022-08-17T12:28:22.415Z,11.50
2022-08-17T12:30:54.082Z,9.80
2022-08-17T12:33:28.620Z,9.20
2022-08-17T12:36:02.481Z,9.20
2022-08-17T12:38:34.079Z,11.20
2022-08-17T12:41:25.870Z,11.20
2022-08-17T12:44:01.682Z,15.50
2022-08-17T12:46:35.515Z,14.80
2022-08-17T12:49:16.223Z,10.90
2022-08-17T12:51:48.433Z,11.70
2022-08-17T12:54:30.035Z,9.10
2022-08-17T12:57:06.182Z,9.50
2022-08-17T12:59:40.049Z,9.70
2022-08-17T13:02:21.340Z,10.00
2022-08-17T13:04:53.289Z,9.00
2022-08-17T13:07:35.860Z,8.70
2022-08-17T13:10:07.481Z,9.20
2022-08-17T13:12:39.394Z,10.00
2022-08-17T13:15:17.290Z,10.00
2022-08-17T13:17:57.570Z,10.60
2022-08-17T13:20:27.258Z,12.80
2022-08-17T13:23:02.704Z,9.30
2022-08-17T13:25:33.300Z,10.50
2022-08-17T13:28:03.512Z,10.40
2022-08-17T13:30:33.602Z,9.40
2022-08-17T13:33:23.435Z,9.30
2022-08-17T13:36:13.440Z,8.70
2022-08-17T13:38:52.403Z,8.90
2022-08-17T13:41:33.696Z,10.90
2022-08-17T13:44:32.789Z,12.00
2022-08-17T13:47:07.070Z,10.50
2022-08-17T13:49:48.433Z,9.20
2022-08-17T13:52:40.256Z,13.30
2022-08-17T13:55:19.273Z,10.30
2022-08-17T13:58:03.485Z,11.10
2022-08-17T14:00:39.030Z,11.10
2022-08-17T14:03:08.795Z,9.10
2022-08-17T14:05:39.971Z,8.10
2022-08-17T14:08:14.448Z,12.90
2022-08-17T14:10:45.450Z,9.70
2022-08-17T14:13:16.692Z,10.10
2022-08-17T14:15:56.154Z,9.80
2022-08-17T14:18:35.699Z,12.90
2022-08-17T14:21:19.092Z,9.20
2022-08-17T14:23:54.974Z,8.70
2022-08-17T14:26:26.319Z,13.80
2022-08-17T14:28:57.109Z,9.00
2022-08-17T14:31:28.419Z,11.30
2022-08-17T14:33:59.843Z,10.50
2022-08-17T14:36:31.304Z,9.90
2022-08-17T14:39:01.861Z,10.30
2022-08-17T14:41:32.932Z,10.40
2022-08-17T14:44:04.526Z,13.40
2022-08-17T14:46:35.491Z,11.60
2022-08-17T14:49:05.557Z,13.40
2022-08-17T14:51:35.670Z,10.80
2022-08-17T14:54:33.899Z,10.60
2022-08-17T14:57:24.645Z,12.40
2022-08-17T15:00:00.272Z,13.90
2022-08-17T15:02:31.340Z,14.20
2022-08-17T15:05:03.074Z,11.40
2022-08-17T15:07:32.704Z,11.70
2022-08-17T15:10:02.862Z,10.90
2022-08-17T15:12:34.625Z,23.40
2022-08-17T15:15:08.674Z,15.00
2022-08-17T15:17:43.971Z,13.30
2022-08-17T15:20:27.191Z,12.20
2022-08-17T15:25:28.113Z,10.40
2022-08-17T15:27:57.843Z,12.50
2022-08-17T15:30:28.321Z,18.10
2022-08-17T15:33:00.587Z,16.00
2022-08-17T15:38:10.695Z,11.00
2022-08-17T15:40:43.758Z,20.30
2022-08-17T15:43:15.783Z,12.90
2022-08-17T15:45:58.620Z,11.60
2022-08-17T15:48:41.485Z,13.70
2022-08-17T15:51:13.907Z,10.00
2022-08-17T15:53:45.883Z,9.90
2022-08-17T15:56:15.956Z,17.20
2022-08-17T15:58:46.901Z,19.00
2022-08-17T16:01:42.288Z,10.30
2022-08-17T16:04:12.179Z,9.20
2022-08-17T16:06:59.575Z,9.20
2022-08-17T16:09:29.450Z,10.00
2022-08-17T16:12:08.089Z,11.20
2022-08-17T16:14:37.773Z,9.30
2022-08-17T16:17:38.784Z,11.90
2022-08-17T16:19:59.851Z,29.10
2022-08-17T16:22:35.294Z,10.70
2022-08-17T16:25:08.852Z,10.10
2022-08-17T16:27:39.062Z,10.30
2022-08-17T16:30:16.925Z,10.60
2022-08-17T16:32:48.505Z,10.00
2022-08-17T16:35:20.880Z,9.10
2022-08-17T16:37:53.971Z,11.40
2022-08-17T16:40:25.603Z,10.30
2022-08-17T16:42:57.687Z,10.00
2022-08-17T16:45:39.602Z,19.10
2022-08-17T16:48:09.953Z,10.20
2022-08-17T16:50:40.142Z,12.70
2022-08-17T16:53:16.051Z,11.00
2022-08-17T16:55:47.692Z,13.00
2022-08-17T16:58:17.971Z,10.50
2022-08-17T17:00:48.381Z,9.90
2022-08-17T17:03:22.092Z,12.00
2022-08-17T17:06:03.883Z,12.20
2022-08-17T17:08:44.414Z,10.60
2022-08-17T17:11:18.851Z,15.00
2022-08-17T17:13:54.224Z,15.40
2022-08-17T17:16:35.465Z,10.30
2022-08-17T17:19:11.579Z,13.50
2022-08-17T17:21:51.481Z,16.70
2022-08-17T17:24:32.762Z,27.90
2022-08-17T17:27:17.352Z,10.70
2022-08-17T17:29:57.739Z,10.60
2022-08-17T17:32:37.421Z,13.00
2022-08-17T17:35:12.401Z,10.00
2022-08-17T17:37:44.541Z,13.00
2022-08-17T17:40:22.601Z,11.10
2022-08-17T17:42:55.322Z,27.10
2022-08-17T17:45:30.951Z,41.50
2022-08-17T17:48:00.801Z,30.80
2022-08-17T17:50:36.943Z,19.90
2022-08-17T17:53:11.061Z,14.30
2022-08-17T17:55:52.062Z,17.20
2022-08-17T17:58:36.273Z,16.30
2022-08-17T18:01:24.398Z,18.20
2022-08-17T18:04:17.010Z,14.50
2022-08-17T18:07:03.375Z,11.70
2022-08-17T18:10:01.383Z,11.60
2022-08-17T18:12:44.342Z,13.10
2022-08-17T18:15:29.439Z,18.00
2022-08-17T18:18:31.593Z,17.40
2022-08-17T18:21:05.812Z,14.60
2022-08-17T18:23:37.211Z,18.60
2022-08-17T18:26:09.221Z,26.20
2022-08-17T18:28:43.941Z,22.40
2022-08-17T18:31:19.651Z,25.00
2022-08-17T18:33:54.185Z,21.80
2022-08-17T18:36:32.464Z,23.40
2022-08-17T18:39:18.251Z,24.80
2022-08-17T18:41:52.344Z,17.20
2022-08-17T18:44:29.237Z,15.80
2022-08-17T18:47:16.148Z,15.50
2022-08-17T18:49:49.952Z,20.40
2022-08-17T18:52:27.970Z,19.80
2022-08-17T18:55:13.505Z,22.90
2022-08-17T18:57:48.203Z,18.20
2022-08-17T19:00:33.492Z,31.40
2022-08-17T19:03:07.477Z,22.60
2022-08-17T19:05:46.969Z,20.60
2022-08-17T19:08:23.875Z,17.90
2022-08-17T19:10:58.619Z,17.30
2022-08-17T19:13:32.053Z,18.80
2022-08-17T19:16:14.177Z,21.00
2022-08-17T19:18:49.604Z,27.60
2022-08-17T19:21:23.384Z,26.80
2022-08-17T19:23:58.728Z,24.00
2022-08-17T19:26:54.896Z,29.30
2022-08-17T19:29:29.992Z,24.00
2022-08-17T19:32:00.400Z,19.40
2022-08-17T19:34:33.906Z,17.40
2022-08-17T19:37:17.395Z,19.60
2022-08-17T19:39:55.720Z,16.70
2022-08-17T19:42:37.062Z,15.80
2022-08-17T19:45:14.276Z,16.30
2022-08-17T19:47:56.464Z,16.00
2022-08-17T19:50:37.950Z,16.10
2022-08-17T19:53:17.385Z,17.00
2022-08-17T19:55:54.155Z,17.10
2022-08-17T19:58:34.112Z,18.90
2022-08-17T20:01:10.721Z,16.30
2022-08-17T20:03:51.399Z,17.80
2022-08-17T20:06:23.616Z,16.00
2022-08-17T20:09:04.675Z,17.10
2022-08-17T20:11:40.913Z,15.60
2022-08-17T20:14:15.334Z,15.80
2022-08-17T20:16:45.368Z,15.70
2022-08-17T20:19:23.134Z,20.20
2022-08-17T20:21:58.444Z,16.60
2022-08-17T20:24:36.041Z,16.50
2022-08-17T20:27:21.656Z,16.50
2022-08-17T20:30:10.074Z,17.40
2022-08-17T20:32:54.972Z,17.60
2022-08-17T20:35:30.792Z,17.30
2022-08-17T20:38:03.082Z,16.50
2022-08-17T20:40:38.469Z,16.50
2022-08-17T20:43:45.851Z,16.80
2022-08-17T20:46:27.809Z,16.90
2022-08-17T20:49:14.627Z,16.70
2022-08-17T20:52:01.489Z,17.10
2022-08-17T20:54:52.739Z,16.50
2022-08-17T20:57:46.104Z,17.00
2022-08-17T21:03:50.542Z,15.60
2022-08-17T21:06:24.112Z,16.80
2022-08-17T21:09:21.481Z,17.20
2022-08-17T21:12:04.673Z,16.90
2022-08-17T21:14:55.990Z,17.30
2022-08-17T21:17:41.593Z,17.10
2022-08-17T21:20:34.783Z,17.10
2022-08-17T21:23:26.722Z,18.80
2022-08-17T21:26:28.073Z,18.20
2022-08-17T21:29:31.396Z,16.20
2022-08-17T21:32:24.640Z,18.40
2022-08-17T21:35:24.471Z,17.80
2022-08-17T21:38:00.076Z,17.60
2022-08-17T21:40:33.140Z,18.80
2022-08-17T21:43:17.085Z,18.30
2022-08-17T21:45:57.232Z,17.80
2022-08-17T21:48:28.523Z,26.30
2022-08-17T21:51:01.544Z,19.40
2022-08-17T21:53:38.758Z,19.20
2022-08-17T21:56:11.110Z,17.30
2022-08-17T21:58:48.316Z,19.10
2022-08-17T22:01:25.453Z,18.90
2022-08-17T22:04:18.943Z,18.40
2022-08-17T22:06:52.333Z,19.00
2022-08-17T22:09:28.911Z,19.70
2022-08-17T22:12:04.822Z,18.80
2022-08-17T22:14:53.003Z,19.80
2022-08-17T22:17:26.309Z,20.50
2022-08-17T22:19:59.694Z,21.40
2022-08-17T22:22:56.071Z,20.90
2022-08-17T22:25:29.122Z,19.40
2022-08-17T22:30:38.428Z,19.30
2022-08-17T22:33:37.153Z,19.40
2022-08-17T22:36:24.817Z,20.00
2022-08-17T22:38:57.044Z,20.10
2022-08-17T22:41:43.032Z,21.50
2022-08-17T22:44:23.863Z,21.30
2022-08-17T22:47:03.189Z,21.20
2022-08-17T22:49:54.235Z,20.00
2022-08-17T22:52:32.516Z,21.20
2022-08-17T22:55:24.564Z,21.60
2022-08-17T22:58:12.484Z,20.60
2022-08-17T23:00:44.409Z,20.30
2022-08-17T23:03:18.826Z,20.60
2022-08-17T23:06:03.064Z,24.30
2022-08-17T23:08:35.294Z,20.90
2022-08-17T23:11:07.224Z,20.50
2022-08-17T23:13:38.100Z,21.40
2022-08-17T23:16:07.975Z,23.40
2022-08-17T23:18:37.502Z,21.40
2022-08-17T23:21:07.603Z,22.90
2022-08-17T23:23:39.125Z,21.90
2022-08-17T23:26:10.934Z,23.80
2022-08-17T23:28:43.464Z,24.20
2022-08-17T23:31:16.475Z,26.10
2022-08-17T23:33:47.386Z,26.60
2022-08-17T23:36:17.656Z,25.70
2022-08-17T23:38:48.046Z,25.90
2022-08-17T23:41:20.395Z,23.10
2022-08-17T23:43:52.085Z,26.50
2022-08-17T23:46:22.092Z,27.50
2022-08-17T23:48:53.401Z,23.00
2022-08-17T23:51:26.335Z,23.70
2022-08-17T23:54:07.998Z,23.10
2022-08-17T23:56:43.593Z,21.60
2022-08-17T23:59:13.936Z,24.80
